Terminal Aerodrome Forecast
Issued by NWS Albany, NY

Home | Current Version | Previous Version | Text Only | Print | Product List | Glossary On
Versions: 1 2 3 4 5 6 7 8 9 10 11 12 13 14 15 16
000
FTUS41 KALY 261815 AAA
TAFGFL
TAF AMD
KGFL 261815Z 2618/2718 34005KT 6SM -SHRA BR SCT008 OVC015
      TEMPO 2618/2621 2SM -SHRA BR BKN008
     FM262300 34006KT P6SM VCSH OVC015
     FM270600 36004KT P6SM OVC025
     FM271400 VRB03KT P6SM BKN035=

USA.gov is the U.S. government's official web portal to all federal, state and local government web resources and services.